createdAt,value
2024-05-09T00:05:45.377Z,96921.13
2024-05-09T00:11:48.289Z,96922.84
2024-05-09T00:17:50.795Z,96924.44
2024-05-09T00:23:53.563Z,96912.59
2024-05-09T00:29:57.001Z,96908.47
2024-05-09T00:36:00.370Z,96899.22
2024-05-09T00:42:02.714Z,96898.19
2024-05-09T00:48:09.535Z,96898.47
2024-05-09T00:54:13.059Z,96889.84
2024-05-09T01:00:26.068Z,96888.13
2024-05-09T01:06:33.457Z,96891.47
2024-05-09T01:12:35.879Z,96893.38
2024-05-09T01:18:38.386Z,96893.38
2024-05-09T01:24:40.757Z,96893.56
2024-05-09T01:30:43.098Z,96888.28
2024-05-09T01:36:45.434Z,96890.22
2024-05-09T01:42:47.869Z,96898.72
2024-05-09T01:48:51.570Z,96892.66
2024-05-09T01:54:54.915Z,96904.53
2024-05-09T02:00:57.280Z,96886.34
2024-05-09T02:06:59.749Z,96893.38
2024-05-09T02:13:02.140Z,96895.97
2024-05-09T02:19:04.778Z,96897.53
2024-05-09T02:25:07.324Z,96888.88
2024-05-09T02:31:13.439Z,96890.53
2024-05-09T02:37:15.735Z,96896.69
2024-05-09T02:43:18.062Z,96896.63
2024-05-09T02:49:20.520Z,96900.19
2024-05-09T02:55:22.898Z,96891.78
2024-05-09T03:01:25.907Z,96886.78
2024-05-09T03:07:28.343Z,96882.81
2024-05-09T03:13:30.747Z,96894.75
2024-05-09T03:19:36.199Z,96888.06
2024-05-09T03:25:39.925Z,96888.06
2024-05-09T03:31:42.287Z,96885.56
2024-05-09T03:37:45.809Z,96885.56
2024-05-09T03:43:48.152Z,96884.56
2024-05-09T03:49:59.924Z,96885.41
2024-05-09T03:56:04.604Z,96880.91
2024-05-09T04:02:08.117Z,96887.66
2024-05-09T04:08:11.317Z,96893.47
2024-05-09T04:14:14.045Z,96897.72
2024-05-09T04:20:28.789Z,96899.28
2024-05-09T04:26:38.739Z,96903.94
2024-05-09T04:32:41.045Z,96909.31
2024-05-09T04:38:43.485Z,96916.28
2024-05-09T04:44:45.896Z,96918.63
2024-05-09T04:50:48.336Z,96919.44
2024-05-09T04:56:52.034Z,96916.41
2024-05-09T05:03:00.497Z,96918.81
2024-05-09T05:09:03.084Z,96926.94
2024-05-09T05:15:06.732Z,96924.34
2024-05-09T05:21:09.104Z,96910.91
2024-05-09T05:27:11.792Z,96922.19
2024-05-09T05:33:25.237Z,96920.91
2024-05-09T05:39:30.359Z,96926.19
2024-05-09T05:45:32.682Z,96937.44
2024-05-09T05:51:36.122Z,96931.25
2024-05-09T05:57:38.496Z,96928.50
2024-05-09T06:03:41.434Z,96930.94
2024-05-09T06:09:45.343Z,96923.69
2024-05-09T06:15:49.132Z,96921.03
2024-05-09T06:21:51.469Z,96913.22
2024-05-09T06:27:53.883Z,96909.63
2024-05-09T06:33:56.293Z,96900.47
2024-05-09T06:39:58.655Z,96893.66
2024-05-09T06:46:02.171Z,96893.69
2024-05-09T06:52:09.683Z,96895.19
2024-05-09T06:58:12.812Z,96907.22
2024-05-09T07:04:15.536Z,96908.91
2024-05-09T07:10:25.805Z,96898.84
2024-05-09T07:16:34.869Z,96904.03
2024-05-09T07:22:37.597Z,96897.72
2024-05-09T07:28:39.892Z,96909.53
2024-05-09T07:34:42.350Z,96892.22
2024-05-09T07:40:46.101Z,96881.28
2024-05-09T07:47:48.761Z,96888.34
2024-05-09T07:53:37.107Z,96889.31
2024-05-09T07:59:37.166Z,96885.16
2024-05-09T08:05:41.504Z,96885.50
2024-05-09T08:11:45.108Z,96887.22
2024-05-09T08:17:47.539Z,96888.19
2024-05-09T08:23:49.931Z,96892.97
2024-05-09T08:29:53.017Z,96895.84
2024-05-09T08:35:56.234Z,96902.31
2024-05-09T08:41:58.542Z,96890.03
2024-05-09T08:48:07.669Z,96877.19
2024-05-09T08:54:11.500Z,96876.38
2024-05-09T09:00:21.629Z,96876.56
2024-05-09T09:06:33.594Z,96880.00
2024-05-09T09:12:36.193Z,96869.44
2024-05-09T09:18:38.894Z,96874.91
2024-05-09T09:24:41.882Z,96880.84
2024-05-09T09:30:45.555Z,96884.16
2024-05-09T09:36:49.897Z,96890.00
2024-05-09T09:42:57.806Z,96888.31
2024-05-09T09:49:00.999Z,96897.75
2024-05-09T09:55:06.074Z,96900.31
2024-05-09T10:01:08.796Z,96896.03
2024-05-09T10:07:13.892Z,96891.66
2024-05-09T10:13:16.556Z,96890.88
2024-05-09T10:19:27.008Z,96890.19
2024-05-09T10:25:29.500Z,96883.63
2024-05-09T10:31:32.485Z,96891.47
2024-05-09T10:37:36.935Z,96880.53
2024-05-09T10:43:43.527Z,96878.53
2024-05-09T10:50:25.802Z,96874.25
2024-05-09T10:56:35.600Z,96878.16
2024-05-09T11:02:38.100Z,96881.28
2024-05-09T11:08:42.688Z,96885.22
2024-05-09T11:14:55.459Z,96885.81
2024-05-09T11:20:58.442Z,96891.19
2024-05-09T11:27:03.439Z,96887.00
2024-05-09T11:33:06.188Z,96887.97
2024-05-09T11:39:09.073Z,96889.47
2024-05-09T11:45:11.481Z,96886.72
2024-05-09T11:51:13.780Z,96881.06
2024-05-09T11:57:16.530Z,96878.94
2024-05-09T12:03:18.987Z,96877.84
2024-05-09T12:09:22.346Z,96875.91
2024-05-09T12:15:24.639Z,96854.16
2024-05-09T12:21:27.954Z,96853.44
2024-05-09T12:27:30.403Z,96851.19
2024-05-09T12:33:32.948Z,96848.13
2024-05-09T12:39:35.499Z,96841.09
2024-05-09T12:45:40.504Z,96825.09
2024-05-09T12:51:43.025Z,96821.78
2024-05-09T12:57:45.455Z,96822.28
2024-05-09T13:03:48.030Z,96818.50
2024-05-09T13:09:51.798Z,96801.56
2024-05-09T13:15:54.324Z,96805.50
2024-05-09T13:21:57.485Z,96788.72
2024-05-09T13:28:01.135Z,96775.63
2024-05-09T13:34:10.927Z,96764.47
2024-05-09T13:40:14.603Z,96757.13
2024-05-09T13:46:18.195Z,96757.66
2024-05-09T13:52:21.114Z,96754.19
2024-05-09T13:58:24.543Z,96753.34
2024-05-09T14:04:27.384Z,96750.44
2024-05-09T14:10:31.898Z,96736.50
2024-05-09T14:16:36.567Z,96724.59
2024-05-09T14:22:41.239Z,96718.16
2024-05-09T14:28:43.536Z,96723.66
2024-05-09T14:34:46.037Z,96716.19
2024-05-09T14:40:48.870Z,96727.72
2024-05-09T14:46:51.361Z,96714.91
2024-05-09T14:53:44.889Z,96716.78
2024-05-09T14:59:50.104Z,96716.72
2024-05-09T15:05:52.689Z,96705.22
2024-05-09T15:11:56.557Z,96701.84
2024-05-09T15:18:00.324Z,96697.53
2024-05-09T15:24:02.891Z,96694.81
2024-05-09T15:30:10.233Z,96699.84
2024-05-09T15:36:13.625Z,96693.00
2024-05-09T15:42:16.354Z,96694.50
2024-05-09T15:48:19.110Z,96688.66
2024-05-09T15:54:23.658Z,96690.63
2024-05-09T16:00:36.505Z,96692.44
2024-05-09T16:06:47.972Z,96681.22
2024-05-09T16:12:52.357Z,96687.63
2024-05-09T16:18:55.058Z,96683.03
2024-05-09T16:24:57.421Z,96690.75
2024-05-09T16:31:01.542Z,96675.75
2024-05-09T16:37:06.648Z,96676.06
2024-05-09T16:43:13.434Z,96687.91
2024-05-09T16:49:16.065Z,96685.00
2024-05-09T16:55:21.279Z,96679.63
2024-05-09T17:01:24.086Z,96666.44
2024-05-09T17:07:26.454Z,96663.56
2024-05-09T17:13:29.352Z,96671.38
2024-05-09T17:19:31.745Z,96663.69
2024-05-09T17:25:35.761Z,96666.00
2024-05-09T17:31:38.211Z,96666.25
2024-05-09T17:37:40.588Z,96657.53
2024-05-09T17:43:42.877Z,96664.91
2024-05-09T17:49:45.019Z,96676.88
2024-05-09T17:55:48.872Z,96680.06
2024-05-09T18:01:51.608Z,96675.25
2024-05-09T18:07:54.383Z,96674.22
2024-05-09T18:13:58.579Z,96680.00
2024-05-09T18:20:00.939Z,96673.72
2024-05-09T18:26:06.538Z,96684.88
2024-05-09T18:32:09.062Z,96688.91
2024-05-09T18:38:11.448Z,96693.91
2024-05-09T18:44:14.178Z,96687.59
2024-05-09T18:50:24.645Z,96694.31
2024-05-09T18:56:35.083Z,96702.91
2024-05-09T19:02:38.680Z,96707.97
2024-05-09T19:08:41.164Z,96708.84
2024-05-09T19:14:44.838Z,96719.97
2024-05-09T19:20:47.284Z,96725.16
2024-05-09T19:26:49.686Z,96733.84
2024-05-09T19:32:52.050Z,96728.66
2024-05-09T19:38:54.587Z,96738.47
2024-05-09T19:44:57.830Z,96742.25
2024-05-09T19:51:00.821Z,96733.69
2024-05-09T19:57:04.414Z,96744.53
2024-05-09T20:03:06.892Z,96745.59
2024-05-09T20:09:09.528Z,96755.22
2024-05-09T20:15:24.969Z,96766.50
2024-05-09T20:21:30.527Z,96751.91
2024-05-09T20:27:37.869Z,96753.47
2024-05-09T20:33:41.698Z,96749.84
2024-05-09T20:39:44.139Z,96751.44
2024-05-09T20:45:46.895Z,96757.41
2024-05-09T20:51:49.264Z,96753.69
2024-05-09T20:57:52.220Z,96752.63
2024-05-09T21:03:54.709Z,96748.19
2024-05-09T21:09:57.759Z,96751.25
2024-05-09T21:16:00.190Z,96751.78
2024-05-09T21:22:02.752Z,96744.78
2024-05-09T21:28:06.160Z,96741.97
2024-05-09T21:34:09.991Z,96746.94
2024-05-09T21:40:17.010Z,96753.47
2024-05-09T21:46:26.619Z,96750.72
2024-05-09T21:52:29.326Z,96744.44
2024-05-09T21:58:33.041Z,96745.78
2024-05-09T22:04:35.492Z,96744.75
2024-05-09T22:10:39.515Z,96738.44
2024-05-09T22:16:42.701Z,96742.31
2024-05-09T22:22:45.401Z,96743.63
2024-05-09T22:28:49.939Z,96739.81
2024-05-09T22:34:52.313Z,96738.47
2024-05-09T22:40:55.246Z,96745.59
2024-05-09T22:46:58.765Z,96742.59
2024-05-09T22:53:01.387Z,96732.69
2024-05-09T22:59:03.775Z,96734.72
2024-05-09T23:05:06.477Z,96736.81
2024-05-09T23:11:10.219Z,96732.06
2024-05-09T23:17:13.802Z,96731.38
2024-05-09T23:23:16.159Z,96722.28
2024-05-09T23:29:19.683Z,96714.88
2024-05-09T23:35:22.071Z,96711.84
2024-05-09T23:41:24.695Z,96708.66
2024-05-09T23:47:27.038Z,96706.38
2024-05-09T23:53:29.673Z,96701.53
2024-05-09T23:59:34.896Z,96702.81
